Time;durP1;ratioP1;P1;durP2;ratioP2;P2;SDS_P1;SDS_P2;PMS_P1;PMS_P2;Temp;Humidity;BMP_temperature;BMP_pressure;BME280_temperature;BME280_humidity;BME280_pressure;Samples;Min_cycle;Max_cycle;Signal;HPM_P1;HPM_P2
2023/10/20 00:01:15;;;;;;;;;;;17.20;62.70;;;;;;5107438;28;19964;-75
2023/10/20 00:03:41;;;;;;;;;;;17.20;62.70;;;;;;5073369;28;20023;-75
2023/10/20 00:06:07;;;;;;;;;;;17.10;62.60;;;;;;5107293;28;19920;-75
2023/10/20 00:08:32;;;;;;;;;;;17.10;62.70;;;;;;5073535;28;19986;-75
2023/10/20 00:11:05;;;;;;;;;;;17.10;62.70;;;;;;5074702;28;20569;-75
2023/10/20 00:13:31;;;;;;;;;;;17.10;62.60;;;;;;5107492;28;19921;-73
2023/10/20 00:15:57;;;;;;;;;;;17.10;62.70;;;;;;5073239;28;20399;-75
2023/10/20 00:18:23;;;;;;;;;;;17.10;62.60;;;;;;5074451;28;19921;-76
2023/10/20 00:20:48;;;;;;;;;;;17.10;62.60;;;;;;5073126;28;19920;-75
2023/10/20 00:23:14;;;;;;;;;;;17.10;62.60;;;;;;5106932;28;19966;-75
2023/10/20 00:25:40;;;;;;;;;;;17.10;62.60;;;;;;5106703;28;19924;-76
2023/10/20 00:28:06;;;;;;;;;;;17.10;62.60;;;;;;5107194;28;19927;-75
2023/10/20 00:30:31;;;;;;;;;;;17.10;62.60;;;;;;5106907;28;19924;-75
2023/10/20 00:32:57;;;;;;;;;;;17.10;62.60;;;;;;5072825;28;19988;-75
2023/10/20 00:35:22;;;;;;;;;;;17.20;62.30;;;;;;5072951;28;19920;-75
2023/10/20 00:37:48;;;;;;;;;;;17.50;61.90;;;;;;5106894;28;20181;-75
2023/10/20 00:40:14;;;;;;;;;;;17.90;61.10;;;;;;5073015;28;19927;-75
2023/10/20 00:42:39;;;;;;;;;;;18.40;59.90;;;;;;5074026;28;20019;-75
2023/10/20 00:45:05;;;;;;;;;;;18.90;58.80;;;;;;5073951;28;19931;-75
2023/10/20 00:47:31;;;;;;;;;;;19.40;57.50;;;;;;5074046;28;19920;-75
2023/10/20 00:49:57;;;;;;;;;;;20.10;56.20;;;;;;5073805;28;20421;-75
2023/10/20 00:52:23;;;;;;;;;;;20.80;54.40;;;;;;5073814;28;20003;-75
2023/10/20 00:54:50;;;;;;;;;;;21.50;53.00;;;;;;5072675;28;20295;-76
2023/10/20 00:57:16;;;;;;;;;;;22.10;51.40;;;;;;5072460;28;19920;-74
2023/10/20 00:59:42;;;;;;;;;;;22.70;50.20;;;;;;5106181;28;19920;-76
2023/10/20 01:02:08;;;;;;;;;;;23.10;49.00;;;;;;5106543;28;19947;-75
2023/10/20 01:04:33;;;;;;;;;;;23.50;48.20;;;;;;5073599;28;20356;-75
2023/10/20 01:06:59;;;;;;;;;;;23.80;47.40;;;;;;5072222;28;19969;-75
2023/10/20 01:09:25;;;;;;;;;;;24.00;46.80;;;;;;5073368;28;19920;-75
2023/10/20 01:11:51;;;;;;;;;;;24.20;46.40;;;;;;5072464;28;20306;-76
2023/10/20 01:14:16;;;;;;;;;;;24.40;46.00;;;;;;5072008;28;19922;-76
2023/10/20 01:16:42;;;;;;;;;;;24.50;45.70;;;;;;5106173;28;19920;-76
2023/10/20 01:19:07;;;;;;;;;;;24.70;45.60;;;;;;5073368;28;19959;-76
2023/10/20 01:21:33;;;;;;;;;;;24.70;45.30;;;;;;5071823;28;19920;-75
2023/10/20 01:24:01;;;;;;;;;;;24.70;45.20;;;;;;5072986;28;20023;-75
2023/10/20 01:26:27;;;;;;;;;;;24.70;45.10;;;;;;5071690;28;20315;-75
2023/10/20 01:28:52;;;;;;;;;;;24.70;45.00;;;;;;5071786;28;19927;-75
2023/10/20 01:31:18;;;;;;;;;;;24.60;45.10;;;;;;5071960;28;19966;-75
2023/10/20 01:33:44;;;;;;;;;;;24.50;45.10;;;;;;5073104;28;19920;-75
2023/10/20 01:36:10;;;;;;;;;;;24.40;45.40;;;;;;5105774;28;19920;-76
2023/10/20 01:38:35;;;;;;;;;;;24.20;45.50;;;;;;5106002;28;20405;-75
2023/10/20 01:41:01;;;;;;;;;;;24.10;45.90;;;;;;5072818;28;19974;-75
2023/10/20 01:43:26;;;;;;;;;;;23.90;46.20;;;;;;5071597;28;19920;-75
2023/10/20 01:45:53;;;;;;;;;;;23.70;46.30;;;;;;5071487;28;19925;-74
2023/10/20 01:48:19;;;;;;;;;;;23.50;46.70;;;;;;5072807;28;19963;-75
2023/10/20 01:50:45;;;;;;;;;;;23.30;47.10;;;;;;5071389;28;19928;-76
2023/10/20 01:53:10;;;;;;;;;;;23.20;47.50;;;;;;5072719;28;19925;-76
2023/10/20 01:55:39;;;;;;;;;;;23.00;47.80;;;;;;5104748;28;20003;-75
2023/10/20 01:58:04;;;;;;;;;;;22.80;48.00;;;;;;5072892;28;20291;-75
2023/10/20 02:00:31;;;;;;;;;;;22.70;48.30;;;;;;5072713;28;19920;-76
2023/10/20 02:02:56;;;;;;;;;;;22.60;48.40;;;;;;5072691;28;19920;-75
2023/10/20 02:05:22;;;;;;;;;;;22.50;48.50;;;;;;5071243;28;19931;-75
2023/10/20 02:07:48;;;;;;;;;;;22.50;48.70;;;;;;5105390;28;19924;-75
2023/10/20 02:10:14;;;;;;;;;;;22.40;48.80;;;;;;5072479;28;20383;-75
2023/10/20 02:12:41;;;;;;;;;;;22.50;49.60;;;;;;5071115;28;19920;-75
2023/10/20 02:15:07;;;;;;;;;;;22.50;48.80;;;;;;5071528;28;20256;-75
2023/10/20 02:17:34;;;;;;;;;;;22.60;48.60;;;;;;5071289;28;19925;-76
2023/10/20 02:20:00;;;;;;;;;;;22.70;48.40;;;;;;5105322;28;20001;-76
2023/10/20 02:22:25;;;;;;;;;;;22.80;48.20;;;;;;5072322;28;19968;-75
2023/10/20 02:24:52;;;;;;;;;;;22.90;47.80;;;;;;5070685;28;20375;-75
2023/10/20 02:27:17;;;;;;;;;;;23.10;47.50;;;;;;5070817;28;19931;-75
2023/10/20 02:29:43;;;;;;;;;;;23.20;47.20;;;;;;5072364;28;19921;-75
2023/10/20 02:32:08;;;;;;;;;;;23.30;47.00;;;;;;5070935;28;19927;-75
2023/10/20 02:34:34;;;;;;;;;;;23.40;46.80;;;;;;5070980;28;20014;-75
2023/10/20 02:36:59;;;;;;;;;;;23.40;46.60;;;;;;5104902;28;19927;-76
2023/10/20 02:39:25;;;;;;;;;;;23.50;46.60;;;;;;5104736;28;19921;-75
2023/10/20 02:41:50;;;;;;;;;;;23.40;46.50;;;;;;5092113;28;19920;-75
2023/10/20 02:44:16;;;;;;;;;;;23.40;46.60;;;;;;5108210;28;20343;-75
2023/10/20 02:46:41;;;;;;;;;;;23.30;46.70;;;;;;5074023;28;19924;-75
2023/10/20 02:49:07;;;;;;;;;;;23.20;46.90;;;;;;5074436;28;20371;-75
2023/10/20 02:51:32;;;;;;;;;;;23.20;47.00;;;;;;5092167;28;20429;-75
2023/10/20 02:53:57;;;;;;;;;;;23.10;47.20;;;;;;5092066;28;19920;-75
2023/10/20 02:56:23;;;;;;;;;;;22.90;47.40;;;;;;5074342;28;19928;-75
2023/10/20 02:58:49;;;;;;;;;;;22.80;47.60;;;;;;5073978;28;19926;-76
2023/10/20 03:01:16;;;;;;;;;;;22.70;47.70;;;;;;5120096;28;19926;-75
2023/10/20 03:03:42;;;;;;;;;;;22.70;47.90;;;;;;5094631;28;19943;-75
2023/10/20 03:06:08;;;;;;;;;;;22.50;48.00;;;;;;5094083;28;20375;-75
2023/10/20 03:08:35;;;;;;;;;;;22.50;48.20;;;;;;5097010;28;20007;-76
2023/10/20 03:11:00;;;;;;;;;;;22.30;48.30;;;;;;5098452;28;20399;-75
2023/10/20 03:13:26;;;;;;;;;;;22.20;48.50;;;;;;5098308;28;19974;-76
2023/10/20 03:15:52;;;;;;;;;;;22.10;48.70;;;;;;5097987;28;20282;-76
2023/10/20 03:18:19;;;;;;;;;;;22.10;48.90;;;;;;5083196;28;19931;-76
2023/10/20 03:20:45;;;;;;;;;;;22.00;48.90;;;;;;5077614;28;20008;-76
2023/10/20 03:23:13;;;;;;;;;;;22.00;49.00;;;;;;5095816;28;19924;-75
2023/10/20 03:25:38;;;;;;;;;;;22.10;48.90;;;;;;5077170;28;19924;-76
2023/10/20 03:28:05;;;;;;;;;;;22.20;48.90;;;;;;5095546;28;19943;-76
2023/10/20 03:30:31;;;;;;;;;;;22.30;48.70;;;;;;5077244;28;19920;-75
2023/10/20 03:32:57;;;;;;;;;;;22.30;48.70;;;;;;5095698;28;20334;-75
2023/10/20 03:35:22;;;;;;;;;;;22.30;48.50;;;;;;5077318;28;19920;-75
2023/10/20 03:37:54;;;;;;;;;;;22.30;48.40;;;;;;5077642;28;20290;-75
2023/10/20 03:40:23;;;;;;;;;;;22.40;48.30;;;;;;5111389;28;19965;-75
2023/10/20 03:42:49;;;;;;;;;;;22.50;48.20;;;;;;5077687;28;19924;-75
2023/10/20 03:45:15;;;;;;;;;;;22.60;47.90;;;;;;5110928;28;19932;-75
2023/10/20 03:47:43;;;;;;;;;;;22.70;47.80;;;;;;5077360;28;19920;-75
2023/10/20 03:50:17;;;;;;;;;;;22.70;47.60;;;;;;5095151;28;19920;-73
2023/10/20 03:52:45;;;;;;;;;;;22.70;47.40;;;;;;5110991;28;20402;-75
2023/10/20 03:55:13;;;;;;;;;;;22.70;47.30;;;;;;5095080;28;20263;-76
2023/10/20 03:57:40;;;;;;;;;;;22.70;47.30;;;;;;5077311;28;19927;-75
2023/10/20 04:00:17;;;;;;;;;;;22.70;47.30;;;;;;5077388;28;19943;-75
2023/10/20 04:02:46;;;;;;;;;;;22.70;47.30;;;;;;5077154;28;19927;-73
2023/10/20 04:05:13;;;;;;;;;;;22.70;47.40;;;;;;5110939;28;20013;-75
2023/10/20 04:07:38;;;;;;;;;;;22.70;47.40;;;;;;5076689;28;19920;-75
2023/10/20 04:10:06;;;;;;;;;;;22.60;47.50;;;;;;5076837;28;20260;-74
2023/10/20 04:12:31;;;;;;;;;;;22.60;47.50;;;;;;5076693;28;19927;-74
2023/10/20 04:14:57;;;;;;;;;;;22.60;47.50;;;;;;5076568;28;19924;-75
2023/10/20 04:17:23;;;;;;;;;;;22.60;47.40;;;;;;5097051;28;19944;-76
2023/10/20 04:19:49;;;;;;;;;;;22.60;47.30;;;;;;5130916;27;19930;-74
2023/10/20 04:22:16;;;;;;;;;;;22.60;47.30;;;;;;5114968;28;19967;-74
2023/10/20 04:24:42;;;;;;;;;;;22.60;47.20;;;;;;5096367;28;19955;-74
2023/10/20 04:27:21;;;;;;;;;;;22.60;47.10;;;;;;5131082;27;19978;-74
2023/10/20 04:43:42;;;;;;;;;;;22.70;46.70;;;;;;5096496;28;20007;-73
2023/10/20 04:54:23;;;;;;;;;;;22.70;46.60;;;;;;5109208;28;19989;-74
2023/10/20 04:57:39;;;;;;;;;;;22.70;46.60;;;;;;5109212;28;19923;-72
2023/10/20 04:59:34;;;;;;;;;;;22.70;46.60;;;;;;5108994;28;19927;-74
2023/10/20 05:02:05;;;;;;;;;;;22.70;46.60;;;;;;5108768;28;20387;-74
2023/10/20 05:04:36;;;;;;;;;;;22.70;46.50;;;;;;5109081;28;20352;-74
2023/10/20 05:07:05;;;;;;;;;;;22.70;46.50;;;;;;5108655;28;19978;-75
2023/10/20 05:09:33;;;;;;;;;;;22.70;47.20;;;;;;5110091;28;20268;-75
2023/10/20 05:11:59;;;;;;;;;;;22.60;46.30;;;;;;5108619;28;19924;-72
2023/10/20 05:14:24;;;;;;;;;;;22.70;46.50;;;;;;5108572;28;19920;-73
2023/10/20 05:16:50;;;;;;;;;;;22.70;46.40;;;;;;5109782;28;19970;-75
2023/10/20 05:19:15;;;;;;;;;;;22.70;46.40;;;;;;5108319;28;19920;-74
2023/10/20 05:21:41;;;;;;;;;;;22.70;46.50;;;;;;5108714;28;20034;-74
2023/10/20 05:24:08;;;;;;;;;;;22.60;46.30;;;;;;5109785;28;19940;-73
2023/10/20 05:26:34;;;;;;;;;;;22.60;46.40;;;;;;5108302;28;19920;-74
2023/10/20 05:28:59;;;;;;;;;;;22.60;46.40;;;;;;5108614;28;20014;-72
2023/10/20 05:31:25;;;;;;;;;;;22.60;46.30;;;;;;5108154;28;19924;-74
2023/10/20 05:33:51;;;;;;;;;;;22.60;46.30;;;;;;5108369;28;19920;-72
2023/10/20 05:36:17;;;;;;;;;;;22.60;46.40;;;;;;5108456;28;20368;-74
2023/10/20 05:38:42;;;;;;;;;;;22.60;46.50;;;;;;5108044;28;20408;-73
2023/10/20 05:41:12;;;;;;;;;;;22.60;46.40;;;;;;5107251;28;19927;-72
2023/10/20 05:43:38;;;;;;;;;;;22.60;46.30;;;;;;5108089;28;19920;-70
2023/10/20 05:46:04;;;;;;;;;;;22.60;46.30;;;;;;5107871;28;19965;-69
2023/10/20 05:48:30;;;;;;;;;;;22.40;46.30;;;;;;5105859;28;20006;-75
2023/10/20 05:50:57;;;;;;;;;;;22.30;46.60;;;;;;5127669;27;19928;-69
2023/10/20 05:53:23;;;;;;;;;;;22.20;46.70;;;;;;5082687;28;19970;-71
2023/10/20 05:55:49;;;;;;;;;;;22.10;46.90;;;;;;5086563;28;20380;-74
2023/10/20 05:58:14;;;;;;;;;;;22.10;47.10;;;;;;5100102;28;19920;-75
2023/10/20 06:00:40;;;;;;;;;;;22.10;47.10;;;;;;5104979;28;19920;-74
2023/10/20 06:03:06;;;;;;;;;;;22.00;47.10;;;;;;5090227;28;19923;-74
2023/10/20 06:05:32;;;;;;;;;;;21.90;47.20;;;;;;5070904;28;20342;-73
2023/10/20 06:07:58;;;;;;;;;;;21.80;47.30;;;;;;5087588;28;20411;-73
2023/10/20 06:10:24;;;;;;;;;;;21.80;47.40;;;;;;5080637;28;20015;-73
2023/10/20 06:12:51;;;;;;;;;;;21.80;47.40;;;;;;5089884;28;20018;-73
2023/10/20 06:15:16;;;;;;;;;;;21.80;47.20;;;;;;5092490;28;20046;-73
2023/10/20 06:17:42;;;;;;;;;;;21.80;47.20;;;;;;5087188;28;19928;-74
2023/10/20 06:20:09;;;;;;;;;;;21.80;47.40;;;;;;5085069;28;19924;-76
2023/10/20 06:22:34;;;;;;;;;;;22.00;47.30;;;;;;5087901;28;20402;-76
2023/10/20 06:25:00;;;;;;;;;;;22.20;47.20;;;;;;5080881;28;19924;-79
2023/10/20 06:27:26;;;;;;;;;;;22.40;46.90;;;;;;5087630;28;19943;-80
2023/10/20 06:30:07;;;;;;;;;;;22.50;46.50;;;;;;5086943;28;20303;-79
2023/10/20 06:35:18;;;;;;;;;;;22.30;46.30;;;;;;5091586;28;19923;-78
2023/10/20 06:37:54;;;;;;;;;;;22.10;46.40;;;;;;5109384;27;20266;-78
2023/10/20 06:40:20;;;;;;;;;;;22.10;46.60;;;;;;5111083;27;19924;-78
2023/10/20 06:42:46;;;;;;;;;;;22.00;46.60;;;;;;5082061;28;19920;-78
2023/10/20 06:45:11;;;;;;;;;;;22.00;46.80;;;;;;5061662;28;20043;-72
2023/10/20 06:47:39;;;;;;;;;;;21.90;47.00;;;;;;5071522;28;19928;-70
2023/10/20 06:50:05;;;;;;;;;;;22.00;47.00;;;;;;5075369;28;19992;-74
2023/10/20 06:52:30;;;;;;;;;;;21.90;46.90;;;;;;5071869;28;19989;-71
2023/10/20 06:54:56;;;;;;;;;;;21.90;46.90;;;;;;5106850;27;19925;-70
2023/10/20 06:57:23;;;;;;;;;;;21.90;46.90;;;;;;5079853;28;19924;-70
2023/10/20 06:59:49;;;;;;;;;;;21.80;46.80;;;;;;5107748;27;19974;-75
2023/10/20 07:02:15;;;;;;;;;;;21.80;46.90;;;;;;5074455;28;20599;-69
2023/10/20 07:04:41;;;;;;;;;;;21.80;46.80;;;;;;5079443;28;19928;-70
2023/10/20 07:07:11;;;;;;;;;;;21.80;46.80;;;;;;5105983;27;19920;-69
2023/10/20 07:09:37;;;;;;;;;;;21.80;46.70;;;;;;5108872;27;19932;-80
2023/10/20 07:12:03;;;;;;;;;;;21.80;46.70;;;;;;5073056;28;20335;-72
2023/10/20 07:14:28;;;;;;;;;;;21.90;46.80;;;;;;5069579;28;19924;-74
2023/10/20 07:16:54;;;;;;;;;;;21.90;46.80;;;;;;5073634;28;19920;-71
2023/10/20 07:19:19;;;;;;;;;;;22.00;46.70;;;;;;5074537;28;20456;-74
2023/10/20 07:21:45;;;;;;;;;;;21.90;46.60;;;;;;5075453;28;19931;-80
2023/10/20 07:24:10;;;;;;;;;;;21.90;46.90;;;;;;5076160;28;20033;-75
2023/10/20 07:26:36;;;;;;;;;;;21.90;47.00;;;;;;5071681;28;19988;-71
2023/10/20 07:29:02;;;;;;;;;;;22.10;47.10;;;;;;5059762;28;19928;-74
2023/10/20 07:31:27;;;;;;;;;;;22.20;46.90;;;;;;5066481;28;19984;-69
2023/10/20 07:33:53;;;;;;;;;;;22.30;46.80;;;;;;5075760;28;19928;-75
2023/10/20 07:36:19;;;;;;;;;;;22.40;46.60;;;;;;5069349;28;20000;-74
2023/10/20 07:38:45;;;;;;;;;;;22.50;46.50;;;;;;5071640;28;19982;-69
2023/10/20 07:41:11;;;;;;;;;;;22.50;46.50;;;;;;5075376;28;19932;-72
2023/10/20 07:43:37;;;;;;;;;;;22.30;46.60;;;;;;5073208;28;19934;-70
2023/10/20 07:46:03;;;;;;;;;;;22.30;46.60;;;;;;5070720;28;19963;-80
2023/10/20 07:48:31;;;;;;;;;;;22.30;46.90;;;;;;5075691;28;20761;-72
2023/10/20 07:50:59;;;;;;;;;;;22.20;46.90;;;;;;5070247;28;19943;-76
2023/10/20 07:53:25;;;;;;;;;;;22.20;47.00;;;;;;5101536;27;19931;-78
2023/10/20 07:55:50;;;;;;;;;;;22.20;47.20;;;;;;5074778;28;20015;-72
2023/10/20 07:58:16;;;;;;;;;;;22.20;47.20;;;;;;5069209;28;19950;-73
2023/10/20 08:00:41;;;;;;;;;;;22.20;47.30;;;;;;5067799;28;19970;-71
2023/10/20 08:03:08;;;;;;;;;;;22.20;47.40;;;;;;5069264;28;19924;-73
2023/10/20 08:05:35;;;;;;;;;;;22.20;47.50;;;;;;5065961;28;19935;-71
2023/10/20 08:08:01;;;;;;;;;;;22.20;47.50;;;;;;5070310;28;19927;-72
2023/10/20 08:10:27;;;;;;;;;;;22.20;47.60;;;;;;5072763;28;19924;-75
2023/10/20 08:12:52;;;;;;;;;;;22.20;47.70;;;;;;5068612;28;19921;-72
2023/10/20 08:15:19;;;;;;;;;;;22.10;47.70;;;;;;5069016;28;20490;-69
2023/10/20 08:17:46;;;;;;;;;;;22.00;47.80;;;;;;5099011;27;19925;-70
2023/10/20 08:20:11;;;;;;;;;;;22.00;48.00;;;;;;5068951;28;19951;-73
2023/10/20 08:22:37;;;;;;;;;;;21.90;48.00;;;;;;5071459;28;19928;-72
2023/10/20 08:25:03;;;;;;;;;;;21.80;48.20;;;;;;5064765;28;19927;-73
2023/10/20 08:27:29;;;;;;;;;;;21.70;48.40;;;;;;5101916;27;19924;-70
2023/10/20 08:29:57;;;;;;;;;;;21.70;48.50;;;;;;5074687;28;20009;-69
2023/10/20 08:32:24;;;;;;;;;;;21.80;48.50;;;;;;5084196;28;20039;-69
2023/10/20 08:34:50;;;;;;;;;;;21.90;48.50;;;;;;5073040;28;19928;-68
2023/10/20 08:37:17;;;;;;;;;;;21.90;48.30;;;;;;5071718;28;20870;-70
2023/10/20 08:39:43;;;;;;;;;;;21.90;48.30;;;;;;5067860;28;19931;-73
2023/10/20 08:42:17;;;;;;;;;;;21.90;48.50;;;;;;5072785;28;21284;-70
2023/10/20 08:44:43;;;;;;;;;;;21.90;48.40;;;;;;5074150;28;19920;-73
2023/10/20 08:47:10;;;;;;;;;;;21.90;48.40;;;;;;5102547;28;20008;-69
2023/10/20 08:49:36;;;;;;;;;;;21.90;48.20;;;;;;5073216;28;19935;-70
2023/10/20 08:52:02;;;;;;;;;;;21.90;48.20;;;;;;5073875;28;19924;-69
2023/10/20 08:54:28;;;;;;;;;;;21.80;47.90;;;;;;5075046;28;19928;-72
2023/10/20 08:56:53;;;;;;;;;;;21.80;48.10;;;;;;5073109;28;19931;-70
2023/10/20 08:59:19;;;;;;;;;;;21.90;48.00;;;;;;5065971;28;19928;-72
2023/10/20 09:01:46;;;;;;;;;;;21.80;48.00;;;;;;5078334;28;19985;-71
2023/10/20 09:04:20;;;;;;;;;;;21.70;48.20;;;;;;5078063;28;19920;-72
2023/10/20 09:06:46;;;;;;;;;;;21.70;48.40;;;;;;5068477;28;20413;-70
2023/10/20 09:09:11;;;;;;;;;;;21.70;48.60;;;;;;5074574;28;19971;-71
2023/10/20 09:11:40;;;;;;;;;;;21.80;48.90;;;;;;5102247;28;19963;-72
2023/10/20 09:14:06;;;;;;;;;;;22.00;48.90;;;;;;5070838;28;19929;-72
2023/10/20 09:16:33;;;;;;;;;;;22.20;48.40;;;;;;5103406;28;19920;-69
2023/10/20 09:18:58;;;;;;;;;;;22.30;48.10;;;;;;5072711;28;19928;-69
2023/10/20 09:21:24;;;;;;;;;;;22.30;47.60;;;;;;5071671;28;19969;-71
2023/10/20 09:24:06;;;;;;;;;;;22.30;47.40;;;;;;5067862;28;19928;-70
2023/10/20 09:26:34;;;;;;;;;;;22.30;47.90;;;;;;5070137;28;20317;-70
2023/10/20 09:29:00;;;;;;;;;;;22.40;47.60;;;;;;5067075;28;19924;-70
2023/10/20 09:31:26;;;;;;;;;;;22.30;47.50;;;;;;5071138;28;20553;-71
2023/10/20 09:33:52;;;;;;;;;;;22.20;47.50;;;;;;5066268;28;20015;-68
2023/10/20 09:36:18;;;;;;;;;;;22.20;47.60;;;;;;5070147;28;20015;-68
2023/10/20 09:38:45;;;;;;;;;;;22.20;47.40;;;;;;5071152;28;19936;-70
2023/10/20 09:41:11;;;;;;;;;;;22.20;47.50;;;;;;5073121;28;19928;-70
2023/10/20 09:43:45;;;;;;;;;;;22.20;47.50;;;;;;5076992;28;19931;-69
2023/10/20 09:46:25;;;;;;;;;;;22.10;47.50;;;;;;5080961;28;20598;-69
2023/10/20 09:48:51;;;;;;;;;;;22.00;47.30;;;;;;5076436;28;20457;-70
2023/10/20 09:51:18;;;;;;;;;;;22.00;47.40;;;;;;5076435;28;20006;-71
2023/10/20 09:53:44;;;;;;;;;;;22.00;47.50;;;;;;5081802;28;19935;-70
2023/10/20 09:56:10;;;;;;;;;;;22.00;47.40;;;;;;5078552;28;20248;-69
2023/10/20 09:58:36;;;;;;;;;;;22.00;47.60;;;;;;5078567;28;19971;-68
2023/10/20 10:01:03;;;;;;;;;;;22.00;47.70;;;;;;5074849;28;19924;-68
2023/10/20 10:03:29;;;;;;;;;;;22.20;47.70;;;;;;5071665;28;20069;-71
2023/10/20 10:05:55;;;;;;;;;;;22.30;47.60;;;;;;5074579;28;19924;-72
2023/10/20 10:08:21;;;;;;;;;;;22.50;47.50;;;;;;5076855;28;19990;-74
2023/10/20 10:10:49;;;;;;;;;;;22.70;47.40;;;;;;5079219;28;20180;-70
2023/10/20 10:13:14;;;;;;;;;;;22.70;47.30;;;;;;5080586;28;20392;-70
2023/10/20 10:15:41;;;;;;;;;;;22.60;46.10;;;;;;5074388;28;19920;-67
2023/10/20 10:18:10;;;;;;;;;;;22.50;46.50;;;;;;5073740;28;20380;-66
2023/10/20 10:20:43;;;;;;;;;;;22.30;46.50;;;;;;5070231;28;20419;-67
2023/10/20 10:23:11;;;;;;;;;;;22.30;46.90;;;;;;5068859;28;19977;-66
2023/10/20 10:25:37;;;;;;;;;;;22.30;47.00;;;;;;5066943;28;19940;-68
2023/10/20 10:28:10;;;;;;;;;;;22.30;47.10;;;;;;5068636;28;19921;-75
2023/10/20 10:30:37;;;;;;;;;;;22.20;47.00;;;;;;5100925;27;19934;-67
2023/10/20 10:33:03;;;;;;;;;;;22.20;47.00;;;;;;5070769;28;20295;-69
2023/10/20 10:35:29;;;;;;;;;;;22.30;47.10;;;;;;5066618;28;19928;-64
2023/10/20 10:37:54;;;;;;;;;;;22.20;47.20;;;;;;5076688;28;20341;-68
2023/10/20 10:40:22;;;;;;;;;;;22.20;47.30;;;;;;5074505;28;19966;-69
2023/10/20 10:42:49;;;;;;;;;;;22.20;47.40;;;;;;5073611;28;19924;-74
2023/10/20 10:48:04;;;;;;;;;;;22.20;47.40;;;;;;5086084;27;19931;-71
2023/10/20 10:50:30;;;;;;;;;;;22.10;47.10;;;;;;5101746;28;20493;-71
2023/10/20 10:52:56;;;;;;;;;;;22.10;47.30;;;;;;5074398;28;20036;-76
2023/10/20 10:55:22;;;;;;;;;;;22.10;47.40;;;;;;5071811;28;19931;-71
2023/10/20 10:57:47;;;;;;;;;;;22.10;47.40;;;;;;5105737;28;19924;-70
2023/10/20 11:00:15;;;;;;;;;;;22.10;47.40;;;;;;5069985;28;20387;-70
2023/10/20 11:02:42;;;;;;;;;;;22.00;47.40;;;;;;5064668;28;19928;-72
2023/10/20 11:05:08;;;;;;;;;;;22.00;47.30;;;;;;5073689;28;19924;-69
2023/10/20 11:07:34;;;;;;;;;;;22.00;48.20;;;;;;5069541;28;19929;-68
2023/10/20 11:10:01;;;;;;;;;;;22.10;47.40;;;;;;5068425;28;19984;-68
2023/10/20 11:12:27;;;;;;;;;;;22.10;47.40;;;;;;5073344;28;20055;-68
2023/10/20 11:14:57;;;;;;;;;;;22.10;47.10;;;;;;5071285;28;19946;-71
2023/10/20 11:17:22;;;;;;;;;;;22.20;47.10;;;;;;5070761;28;19924;-72
2023/10/20 11:19:48;;;;;;;;;;;22.20;47.10;;;;;;5076024;28;19924;-74
2023/10/20 11:22:15;;;;;;;;;;;22.30;47.20;;;;;;5066809;28;19924;-71
2023/10/20 11:24:41;;;;;;;;;;;22.30;47.10;;;;;;5070753;28;19967;-72
2023/10/20 11:27:07;;;;;;;;;;;22.50;47.10;;;;;;5071309;28;20016;-68
2023/10/20 11:29:35;;;;;;;;;;;22.50;47.00;;;;;;5072917;28;19924;-68
2023/10/20 11:32:05;;;;;;;;;;;22.60;47.00;;;;;;5070111;28;20015;-69
2023/10/20 11:34:32;;;;;;;;;;;22.60;46.90;;;;;;5071526;28;20422;-70
2023/10/20 11:36:57;;;;;;;;;;;22.70;46.80;;;;;;5064818;28;19925;-76
2023/10/20 11:39:24;;;;;;;;;;;22.60;46.60;;;;;;5055217;28;20290;-75
2023/10/20 11:41:51;;;;;;;;;;;22.60;46.70;;;;;;5060844;28;19924;-77
2023/10/20 11:44:16;;;;;;;;;;;22.50;46.60;;;;;;5066147;28;20351;-78
2023/10/20 11:46:43;;;;;;;;;;;22.60;47.00;;;;;;5070250;28;19975;-77
2023/10/20 11:49:10;;;;;;;;;;;22.90;46.40;;;;;;5068743;28;20208;-72
2023/10/20 11:51:36;;;;;;;;;;;23.30;45.20;;;;;;5063388;28;19925;-73
2023/10/20 11:54:02;;;;;;;;;;;23.60;44.10;;;;;;5079800;28;19947;-74
2023/10/20 11:56:27;;;;;;;;;;;23.70;43.60;;;;;;5064088;28;20215;-73
2023/10/20 11:58:53;;;;;;;;;;;23.70;43.80;;;;;;5050251;28;20023;-75
2023/10/20 12:01:18;;;;;;;;;;;23.80;43.90;;;;;;5056890;28;19920;-74
2023/10/20 12:03:44;;;;;;;;;;;23.80;43.90;;;;;;5057063;28;19974;-72
2023/10/20 12:06:10;;;;;;;;;;;23.80;43.90;;;;;;5052699;28;19928;-77
2023/10/20 12:08:35;;;;;;;;;;;23.70;43.40;;;;;;5052898;28;19930;-75
2023/10/20 12:11:02;;;;;;;;;;;23.50;43.70;;;;;;5057506;28;19999;-75
2023/10/20 12:13:27;;;;;;;;;;;23.30;44.60;;;;;;5060187;28;19921;-73
2023/10/20 12:15:53;;;;;;;;;;;23.00;45.00;;;;;;5052306;28;20446;-71
2023/10/20 12:18:18;;;;;;;;;;;22.80;45.60;;;;;;5058146;28;19920;-75
2023/10/20 12:20:44;;;;;;;;;;;22.70;46.00;;;;;;5054578;28;19951;-74
2023/10/20 12:23:09;;;;;;;;;;;22.50;46.20;;;;;;5059156;28;19979;-74
2023/10/20 12:25:36;;;;;;;;;;;22.30;46.40;;;;;;5058400;28;19924;-74
2023/10/20 12:28:01;;;;;;;;;;;22.20;46.90;;;;;;5055777;28;19935;-70
2023/10/20 12:30:27;;;;;;;;;;;22.00;47.50;;;;;;5044294;28;20408;-73
2023/10/20 12:32:52;;;;;;;;;;;21.80;47.70;;;;;;5054834;28;19927;-73
2023/10/20 12:35:18;;;;;;;;;;;21.60;48.20;;;;;;5054168;28;20368;-74
2023/10/20 12:37:45;;;;;;;;;;;21.40;47.30;;;;;;5056062;28;19932;-75
2023/10/20 12:40:13;;;;;;;;;;;21.30;47.80;;;;;;5087970;28;20049;-77
2023/10/20 12:42:40;;;;;;;;;;;21.20;48.40;;;;;;5055447;28;19962;-78
2023/10/20 12:45:08;;;;;;;;;;;21.10;48.50;;;;;;5088997;28;19920;-74
2023/10/20 12:47:34;;;;;;;;;;;20.90;48.60;;;;;;5055682;28;19928;-73
2023/10/20 12:50:00;;;;;;;;;;;20.70;49.00;;;;;;5053492;28;19924;-69
2023/10/20 12:52:25;;;;;;;;;;;20.70;49.50;;;;;;5055494;28;19944;-71
2023/10/20 12:54:52;;;;;;;;;;;20.50;49.70;;;;;;5058374;28;19925;-73
2023/10/20 12:57:18;;;;;;;;;;;20.40;50.20;;;;;;5058621;28;20299;-72
2023/10/20 12:59:43;;;;;;;;;;;20.40;50.60;;;;;;5057775;28;20007;-72
2023/10/20 13:02:09;;;;;;;;;;;20.30;50.60;;;;;;5060418;28;20532;-78
2023/10/20 13:04:35;;;;;;;;;;;20.20;50.60;;;;;;5088660;28;20020;-74
2023/10/20 13:07:02;;;;;;;;;;;20.10;50.80;;;;;;5057853;28;19986;-68
2023/10/20 13:09:28;;;;;;;;;;;20.00;50.90;;;;;;5048241;28;19921;-68
2023/10/20 13:11:53;;;;;;;;;;;20.00;51.00;;;;;;5054170;28;19920;-68
2023/10/20 13:14:19;;;;;;;;;;;19.90;50.90;;;;;;5069885;28;19920;-68
2023/10/20 13:16:44;;;;;;;;;;;19.80;50.90;;;;;;5067896;28;20050;-67
2023/10/20 13:19:10;;;;;;;;;;;19.80;50.90;;;;;;5067182;28;19924;-68
2023/10/20 13:21:36;;;;;;;;;;;19.70;51.20;;;;;;5068525;28;20515;-69
2023/10/20 13:24:03;;;;;;;;;;;19.70;51.40;;;;;;5069206;28;20448;-67
2023/10/20 13:26:28;;;;;;;;;;;19.60;51.90;;;;;;5066957;28;19925;-67
2023/10/20 13:28:54;;;;;;;;;;;19.60;51.30;;;;;;5101919;28;20284;-69
2023/10/20 13:31:22;;;;;;;;;;;19.50;51.30;;;;;;5102840;28;20295;-67
2023/10/20 13:33:48;;;;;;;;;;;19.50;51.40;;;;;;5068664;28;19927;-68
2023/10/20 13:36:14;;;;;;;;;;;19.40;51.40;;;;;;5068792;28;19920;-71
2023/10/20 13:38:40;;;;;;;;;;;19.40;51.40;;;;;;5068158;28;19920;-71
2023/10/20 13:41:06;;;;;;;;;;;19.40;51.50;;;;;;5067935;28;19928;-71
2023/10/20 13:43:31;;;;;;;;;;;19.30;51.40;;;;;;5068591;28;20408;-71
2023/10/20 13:45:57;;;;;;;;;;;19.20;51.40;;;;;;5068321;28;20288;-71
2023/10/20 13:48:23;;;;;;;;;;;19.20;51.40;;;;;;5067298;28;19944;-72
2023/10/20 13:50:49;;;;;;;;;;;19.20;51.40;;;;;;5068570;28;19928;-71
2023/10/20 13:53:14;;;;;;;;;;;19.10;51.40;;;;;;5068438;28;19920;-71
2023/10/20 13:55:41;;;;;;;;;;;19.10;51.40;;;;;;5069092;28;19931;-71
2023/10/20 13:58:07;;;;;;;;;;;19.00;51.40;;;;;;5068887;28;19921;-71
2023/10/20 14:00:35;;;;;;;;;;;19.00;51.40;;;;;;5065728;28;19924;-72
2023/10/20 14:03:01;;;;;;;;;;;19.00;51.50;;;;;;5067374;28;19932;-73
2023/10/20 14:05:29;;;;;;;;;;;18.90;51.40;;;;;;5067556;28;19921;-72
2023/10/20 14:07:56;;;;;;;;;;;18.90;51.50;;;;;;5065693;28;19928;-72
2023/10/20 14:10:23;;;;;;;;;;;18.90;51.50;;;;;;5066406;28;19970;-72
2023/10/20 14:12:48;;;;;;;;;;;18.90;51.60;;;;;;5067077;28;19921;-72
2023/10/20 14:15:14;;;;;;;;;;;18.90;51.60;;;;;;5067012;28;19921;-72
2023/10/20 14:17:40;;;;;;;;;;;18.90;51.60;;;;;;5069370;28;19982;-80
2023/10/20 14:20:06;;;;;;;;;;;18.80;51.60;;;;;;5066504;28;19927;-71
2023/10/20 14:22:32;;;;;;;;;;;18.90;51.80;;;;;;5066005;28;20312;-76
2023/10/20 14:24:57;;;;;;;;;;;18.80;52.00;;;;;;5091565;28;19927;-78
2023/10/20 14:27:23;;;;;;;;;;;18.80;52.00;;;;;;5068780;28;20295;-73
2023/10/20 14:29:48;;;;;;;;;;;18.80;52.20;;;;;;5098291;28;19927;-76
2023/10/20 14:32:14;;;;;;;;;;;18.80;52.10;;;;;;5068082;28;19978;-71
2023/10/20 14:34:39;;;;;;;;;;;18.70;52.30;;;;;;5069581;28;20474;-70
2023/10/20 14:37:07;;;;;;;;;;;18.70;52.30;;;;;;5093896;28;19974;-68
2023/10/20 14:39:34;;;;;;;;;;;18.70;52.40;;;;;;5066933;28;20376;-71